Time;durP1;ratioP1;P1;durP2;ratioP2;P2;SDS_P1;SDS_P2;PMS_P1;PMS_P2;Temp;Humidity;BMP_temperature;BMP_pressure;BME280_temperature;BME280_humidity;BME280_pressure;Samples;Min_cycle;Max_cycle;Signal;HPM_P1;HPM_P2
2023/12/16 00:00:20;;;;;;;0.10;0.10;;;;;;;4.52;100.00;98660.56;5047379;28;20041;-75
2023/12/16 00:03:06;;;;;;;0.20;0.20;;;;;;;4.53;100.00;98673.66;5046124;28;20083;-76
2023/12/16 00:05:53;;;;;;;0.20;0.20;;;;;;;4.41;100.00;98666.94;5046490;28;20072;-76
2023/12/16 00:08:38;;;;;;;0.20;0.20;;;;;;;4.33;100.00;98672.19;5021487;28;20033;-75
2023/12/16 00:11:24;;;;;;;0.20;0.20;;;;;;;4.31;100.00;98663.56;5049886;28;20297;-75
2023/12/16 00:14:10;;;;;;;0.20;0.20;;;;;;;4.46;100.00;98662.00;5045793;28;20072;-75
2023/12/16 00:16:56;;;;;;;0.20;0.20;;;;;;;4.53;100.00;98659.56;5045881;28;20051;-75
2023/12/16 00:19:42;;;;;;;0.20;0.20;;;;;;;4.63;100.00;98658.47;5036861;28;20089;-76
2023/12/16 00:22:28;;;;;;;0.10;0.10;;;;;;;4.60;100.00;98656.13;5046470;28;20041;-76
2023/12/16 00:25:14;;;;;;;0.17;0.17;;;;;;;4.48;100.00;98654.72;5049004;28;20540;-76
2023/12/16 00:27:59;;;;;;;0.15;0.15;;;;;;;4.49;100.00;98661.69;5047308;28;20361;-76
2023/12/16 00:30:46;;;;;;;0.20;0.20;;;;;;;4.48;100.00;98652.91;5046564;28;20060;-76
2023/12/16 00:33:31;;;;;;;0.10;0.10;;;;;;;4.51;100.00;98653.56;5045532;28;20406;-76
2023/12/16 00:36:17;;;;;;;0.20;0.20;;;;;;;4.63;100.00;98662.94;5046899;28;20055;-76
2023/12/16 00:39:03;;;;;;;0.20;0.20;;;;;;;4.68;100.00;98658.00;5046295;28;20353;-76
2023/12/16 00:41:49;;;;;;;0.10;0.10;;;;;;;4.66;100.00;98655.47;5047636;28;20040;-76
2023/12/16 00:44:35;;;;;;;0.20;0.20;;;;;;;4.70;100.00;98656.84;5046196;28;20040;-76
2023/12/16 00:47:21;;;;;;;0.10;0.10;;;;;;;4.79;100.00;98667.50;5047331;28;20040;-76
2023/12/16 00:50:08;;;;;;;0.15;0.15;;;;;;;4.70;100.00;98675.41;5045030;28;20045;-76
2023/12/16 00:52:54;;;;;;;0.17;0.17;;;;;;;4.79;100.00;98659.53;5047105;28;20066;-76
2023/12/16 00:55:40;;;;;;;0.10;0.10;;;;;;;4.65;100.00;98661.78;5047796;28;20044;-76
2023/12/16 00:58:26;;;;;;;0.20;0.20;;;;;;;4.77;100.00;98661.53;5045108;28;20043;-76
2023/12/16 01:01:15;;;;;;;0.20;0.20;;;;;;;4.79;100.00;98654.22;5044158;28;20041;-76
2023/12/16 01:04:01;;;;;;;0.20;0.20;;;;;;;4.71;100.00;98653.19;5043653;28;20045;-76
2023/12/16 01:06:47;;;;;;;0.17;0.17;;;;;;;4.64;100.00;98665.41;5046212;28;20032;-76
2023/12/16 01:09:33;;;;;;;0.20;0.20;;;;;;;4.71;100.00;98666.47;5046382;28;20102;-76
2023/12/16 01:12:19;;;;;;;0.17;0.17;;;;;;;4.75;100.00;98661.69;5045573;28;20029;-76
2023/12/16 01:15:05;;;;;;;0.20;0.20;;;;;;;4.70;100.00;98670.09;5045966;28;20040;-76
2023/12/16 01:17:51;;;;;;;0.28;0.28;;;;;;;4.47;100.00;98668.97;5046088;28;20071;-76
2023/12/16 01:20:37;;;;;;;0.20;0.20;;;;;;;4.51;100.00;98675.59;5046564;28;20119;-76
2023/12/16 01:23:23;;;;;;;0.20;0.20;;;;;;;4.55;100.00;98669.03;5045880;28;20176;-76
2023/12/16 01:26:09;;;;;;;0.20;0.20;;;;;;;4.59;100.00;98672.19;5043290;28;20033;-76
2023/12/16 01:28:55;;;;;;;0.10;0.10;;;;;;;4.60;100.00;98672.03;5043396;28;20041;-76
2023/12/16 01:31:41;;;;;;;0.20;0.20;;;;;;;4.48;100.00;98673.28;5032519;28;20569;-75
2023/12/16 01:34:26;;;;;;;0.10;0.10;;;;;;;4.38;100.00;98670.75;5045365;28;20048;-75
2023/12/16 01:37:12;;;;;;;0.17;0.17;;;;;;;4.33;100.00;98674.84;5046844;28;20079;-75
2023/12/16 01:40:00;;;;;;;0.20;0.20;;;;;;;4.36;100.00;98663.94;5046677;28;20070;-75
2023/12/16 01:42:46;;;;;;;0.20;0.20;;;;;;;4.46;100.00;98668.16;5046156;28;20036;-76
2023/12/16 01:45:32;;;;;;;0.20;0.20;;;;;;;4.39;100.00;98674.22;5044855;28;20041;-75
2023/12/16 01:48:18;;;;;;;0.20;0.20;;;;;;;4.27;100.00;98672.81;5044208;28;20048;-75
2023/12/16 01:51:04;;;;;;;0.13;0.13;;;;;;;4.43;100.00;98688.81;5043968;28;20067;-75
2023/12/16 01:53:50;;;;;;;0.20;0.20;;;;;;;4.55;100.00;98687.59;5031211;28;20045;-75
2023/12/16 01:56:37;;;;;;;0.10;0.10;;;;;;;4.61;100.00;98697.56;5046852;28;20044;-75
2023/12/16 01:59:25;;;;;;;0.20;0.20;;;;;;;4.65;100.00;98698.91;5044475;28;20436;-75
2023/12/16 02:02:13;;;;;;;0.20;0.20;;;;;;;4.71;100.00;98692.97;5044708;28;20132;-75
2023/12/16 02:04:59;;;;;;;0.20;0.20;;;;;;;4.64;100.00;98689.28;5044043;28;20453;-75
2023/12/16 02:07:45;;;;;;;0.10;0.10;;;;;;;4.66;100.00;98683.81;5043175;28;20119;-75
2023/12/16 02:10:31;;;;;;;0.13;0.13;;;;;;;4.45;100.00;98681.56;5046176;28;20052;-76
2023/12/16 02:13:23;;;;;;;0.20;0.20;;;;;;;4.23;100.00;98677.59;5043432;28;20092;-76
2023/12/16 02:16:10;;;;;;;0.10;0.10;;;;;;;4.37;100.00;98670.91;5047436;28;20043;-75
2023/12/16 02:18:55;;;;;;;0.20;0.20;;;;;;;4.29;100.00;98676.16;5044907;28;20550;-76
2023/12/16 02:21:41;;;;;;;0.20;0.20;;;;;;;4.41;100.00;98683.69;5043702;28;20080;-76
2023/12/16 02:24:28;;;;;;;0.20;0.20;;;;;;;4.35;100.00;98678.97;5044123;28;20068;-76
2023/12/16 02:27:14;;;;;;;0.10;0.10;;;;;;;4.50;100.00;98684.56;5044566;28;20266;-75
2023/12/16 02:30:00;;;;;;;0.10;0.10;;;;;;;4.58;100.00;98686.44;5045577;28;20466;-76
2023/12/16 02:32:47;;;;;;;0.20;0.20;;;;;;;4.57;100.00;98688.25;5032175;28;20090;-76
2023/12/16 02:35:33;;;;;;;0.20;0.20;;;;;;;4.45;100.00;98690.34;5045370;28;20578;-75
2023/12/16 02:38:19;;;;;;;0.20;0.20;;;;;;;4.58;100.00;98689.91;5037199;28;20451;-76
2023/12/16 02:41:05;;;;;;;0.20;0.20;;;;;;;4.61;100.00;98697.56;5044749;28;20043;-76
2023/12/16 02:43:51;;;;;;;0.20;0.20;;;;;;;4.64;100.00;98693.75;5044994;28;20464;-76
2023/12/16 02:46:37;;;;;;;0.20;0.20;;;;;;;4.54;100.00;98691.22;5045288;28;20126;-75
2023/12/16 02:49:23;;;;;;;0.20;0.20;;;;;;;4.63;100.00;98687.63;5045299;28;20580;-75
2023/12/16 02:52:09;;;;;;;0.10;0.10;;;;;;;4.68;100.00;98693.31;5043612;28;20029;-76
2023/12/16 02:54:54;;;;;;;0.20;0.20;;;;;;;4.62;100.00;98693.94;5045618;28;20603;-76
2023/12/16 02:57:40;;;;;;;0.20;0.20;;;;;;;4.50;100.00;98695.16;5044556;28;20052;-75
2023/12/16 03:00:26;;;;;;;0.10;0.10;;;;;;;4.55;100.00;98687.59;5046044;28;20037;-75
2023/12/16 03:03:12;;;;;;;0.20;0.20;;;;;;;4.60;100.00;98690.59;5049135;28;20036;-76
2023/12/16 03:06:07;;;;;;;0.20;0.20;;;;;;;4.57;100.00;98684.78;5047633;28;20044;-75
2023/12/16 03:08:53;;;;;;;0.13;0.13;;;;;;;4.47;100.00;98682.22;5049650;28;20128;-75
2023/12/16 03:11:39;;;;;;;0.20;0.20;;;;;;;4.34;100.00;98687.09;5049602;28;20048;-75
2023/12/16 03:14:25;;;;;;;0.20;0.20;;;;;;;4.18;100.00;98685.16;5049844;28;20509;-75
2023/12/16 03:17:12;;;;;;;0.20;0.20;;;;;;;4.07;100.00;98688.91;5047533;28;20044;-75
2023/12/16 03:19:58;;;;;;;0.15;0.15;;;;;;;4.02;100.00;98693.81;5049510;28;20477;-75
2023/12/16 03:22:44;;;;;;;0.15;0.15;;;;;;;3.97;100.00;98692.59;5039882;28;20176;-76
2023/12/16 03:25:29;;;;;;;0.20;0.20;;;;;;;3.93;100.00;98689.44;5046772;28;20039;-75
2023/12/16 03:28:15;;;;;;;0.20;0.20;;;;;;;4.01;100.00;98681.56;5049099;28;20344;-75
2023/12/16 03:31:01;;;;;;;0.20;0.20;;;;;;;3.88;100.00;98681.94;5048333;28;20050;-75
2023/12/16 03:33:47;;;;;;;0.20;0.20;;;;;;;4.01;100.00;98678.91;5048850;28;20686;-75
2023/12/16 03:36:33;;;;;;;0.20;0.20;;;;;;;4.00;100.00;98697.59;5047547;28;20048;-75
2023/12/16 03:39:19;;;;;;;0.20;0.20;;;;;;;3.86;100.00;98680.44;5049305;28;20486;-75
2023/12/16 03:42:06;;;;;;;0.20;0.20;;;;;;;3.83;100.00;98680.75;5048098;28;20512;-75
2023/12/16 03:44:51;;;;;;;0.20;0.20;;;;;;;3.79;100.00;98674.06;5045689;28;20402;-75
2023/12/16 03:47:37;;;;;;;0.20;0.20;;;;;;;3.97;100.00;98682.84;5047649;28;20334;-75
2023/12/16 03:50:23;;;;;;;0.20;0.20;;;;;;;3.92;100.00;98679.81;5048058;28;20486;-75
2023/12/16 03:53:09;;;;;;;0.20;0.20;;;;;;;3.94;100.00;98680.50;5050042;28;20041;-76
2023/12/16 03:55:55;;;;;;;0.20;0.20;;;;;;;3.98;100.00;98675.75;5048960;28;20036;-76
2023/12/16 03:58:41;;;;;;;0.10;0.10;;;;;;;4.05;100.00;98679.44;5047826;28;20394;-75
2023/12/16 04:01:27;;;;;;;0.20;0.20;;;;;;;4.11;100.00;98682.28;5048354;28;20041;-75
2023/12/16 04:04:12;;;;;;;0.20;0.20;;;;;;;3.90;100.00;98682.63;5045437;28;20064;-75
2023/12/16 04:07:00;;;;;;;0.20;0.20;;;;;;;3.90;100.00;98689.75;5046839;28;20044;-75
2023/12/16 04:09:46;;;;;;;0.20;0.20;;;;;;;3.88;100.00;98684.56;5046369;28;20041;-75
2023/12/16 04:12:32;;;;;;;0.20;0.20;;;;;;;3.93;100.00;98681.47;5047449;28;20147;-75
2023/12/16 04:15:18;;;;;;;0.13;0.13;;;;;;;3.97;100.00;98679.34;5046801;28;20123;-75
2023/12/16 04:18:04;;;;;;;0.20;0.20;;;;;;;3.95;100.00;98684.81;5049154;28;20912;-75
2023/12/16 04:20:49;;;;;;;0.10;0.10;;;;;;;3.88;100.00;98686.41;5048302;28;20036;-75
2023/12/16 04:23:35;;;;;;;0.17;0.17;;;;;;;3.77;100.00;98697.22;5045897;28;20151;-75
2023/12/16 04:26:21;;;;;;;0.20;0.20;;;;;;;3.73;100.00;98707.28;5046421;28;20048;-75
2023/12/16 04:29:07;;;;;;;0.20;0.20;;;;;;;3.86;100.00;98706.91;5049796;28;20036;-75
2023/12/16 04:31:53;;;;;;;0.10;0.10;;;;;;;3.97;100.00;98708.50;5046418;28;20044;-75
2023/12/16 04:34:39;;;;;;;0.20;0.20;;;;;;;4.02;100.00;98707.06;5044080;28;20037;-75
2023/12/16 04:37:24;;;;;;;0.20;0.20;;;;;;;4.10;100.00;98717.72;5030163;28;20658;-75
2023/12/16 04:40:11;;;;;;;0.20;0.20;;;;;;;4.07;100.00;98709.25;5044794;28;20041;-75
2023/12/16 04:42:56;;;;;;;0.20;0.20;;;;;;;4.12;100.00;98706.97;5043986;28;20482;-75
2023/12/16 04:45:43;;;;;;;0.17;0.17;;;;;;;4.09;100.00;98702.81;5045322;28;20045;-75
2023/12/16 04:48:28;;;;;;;0.20;0.20;;;;;;;4.08;100.00;98709.09;5042327;28;20043;-75
2023/12/16 04:51:14;;;;;;;0.20;0.20;;;;;;;4.11;100.00;98707.97;5045427;28;20056;-75
2023/12/16 04:54:01;;;;;;;0.10;0.10;;;;;;;4.05;100.00;98704.13;5043723;28;20086;-75
2023/12/16 04:56:47;;;;;;;0.20;0.20;;;;;;;4.03;100.00;98702.59;5042943;28;20063;-75
2023/12/16 04:59:33;;;;;;;0.20;0.20;;;;;;;4.01;100.00;98710.69;5043656;28;20400;-75
2023/12/16 05:02:19;;;;;;;0.20;0.20;;;;;;;3.97;100.00;98719.09;5045228;28;20035;-75
2023/12/16 05:05:05;;;;;;;0.20;0.20;;;;;;;4.04;100.00;98725.44;5048331;28;20044;-75
2023/12/16 05:07:51;;;;;;;0.20;0.20;;;;;;;4.04;100.00;98709.56;5046570;28;20094;-75
2023/12/16 05:10:37;;;;;;;0.20;0.20;;;;;;;4.04;100.00;98713.03;5046177;28;20067;-75
2023/12/16 05:13:23;;;;;;;0.20;0.20;;;;;;;4.04;100.00;98710.38;5045724;28;20146;-75
2023/12/16 05:16:08;;;;;;;0.20;0.20;;;;;;;4.06;100.00;98713.72;5048597;28;20513;-75
2023/12/16 05:18:54;;;;;;;0.17;0.17;;;;;;;4.06;100.00;98713.72;5046010;28;20102;-75
2023/12/16 05:21:40;;;;;;;0.17;0.17;;;;;;;4.08;100.00;98726.81;5044283;28;20040;-75
2023/12/16 05:24:26;;;;;;;0.10;0.10;;;;;;;4.09;100.00;98718.72;5045270;28;20048;-76
2023/12/16 05:27:12;;;;;;;0.20;0.20;;;;;;;4.07;100.00;98726.00;5046505;28;20563;-76
2023/12/16 05:30:00;;;;;;;0.20;0.20;;;;;;;4.12;100.00;98728.16;5045478;28;20050;-76
2023/12/16 05:32:46;;;;;;;0.20;0.20;;;;;;;4.06;100.00;98736.75;5025431;28;20078;-76
2023/12/16 05:35:32;;;;;;;0.20;0.20;;;;;;;4.09;100.00;98733.78;5027735;28;20789;-76
2023/12/16 05:38:18;;;;;;;0.20;0.20;;;;;;;4.08;100.00;98730.31;5025725;28;20087;-76
2023/12/16 05:41:04;;;;;;;0.20;0.20;;;;;;;4.05;100.00;98727.13;5027857;28;20600;-76
2023/12/16 05:43:49;;;;;;;0.17;0.17;;;;;;;4.09;100.00;98731.13;5024171;28;20041;-76
2023/12/16 05:46:36;;;;;;;0.20;0.20;;;;;;;4.14;100.00;98729.69;5026601;28;20037;-76
2023/12/16 05:49:22;;;;;;;0.20;0.20;;;;;;;4.13;100.00;98733.34;5025391;28;20045;-76
2023/12/16 05:52:08;;;;;;;0.20;0.20;;;;;;;4.10;100.00;98730.97;5026436;28;20461;-76
2023/12/16 05:54:54;;;;;;;0.10;0.10;;;;;;;4.10;100.00;98738.09;5024562;28;20512;-76
2023/12/16 05:57:41;;;;;;;0.20;0.20;;;;;;;4.11;100.00;98731.81;5024861;28;20150;-76
2023/12/16 06:00:27;;;;;;;0.20;0.20;;;;;;;4.11;100.00;98719.38;5024918;28;20048;-76
2023/12/16 06:03:13;;;;;;;0.20;0.20;;;;;;;4.10;100.00;98717.72;5025391;28;20052;-76
2023/12/16 06:05:59;;;;;;;0.20;0.20;;;;;;;4.06;100.00;98718.19;5027229;28;20041;-76
2023/12/16 06:08:45;;;;;;;0.20;0.20;;;;;;;4.07;100.00;98718.03;5026144;28;20060;-76
2023/12/16 06:11:31;;;;;;;0.20;0.20;;;;;;;4.10;100.00;98727.50;5024780;28;20041;-76
2023/12/16 06:14:17;;;;;;;0.20;0.20;;;;;;;4.08;100.00;98726.81;5024296;28;20406;-76
2023/12/16 06:17:03;;;;;;;0.20;0.20;;;;;;;4.11;100.00;98735.28;5012896;28;20041;-76
2023/12/16 06:19:49;;;;;;;0.20;0.20;;;;;;;4.07;100.00;98739.25;5024621;28;20068;-76
2023/12/16 06:22:34;;;;;;;0.10;0.10;;;;;;;4.05;100.00;98743.88;5025730;28;20033;-76
2023/12/16 06:25:20;;;;;;;0.20;0.20;;;;;;;4.07;100.00;98736.59;5038478;28;20049;-75
2023/12/16 06:28:06;;;;;;;0.20;0.20;;;;;;;4.03;100.00;98740.50;5026082;28;20119;-75
2023/12/16 06:30:52;;;;;;;0.20;0.20;;;;;;;4.06;100.00;98740.22;5023459;28;20712;-76
2023/12/16 06:33:38;;;;;;;0.10;0.10;;;;;;;4.05;100.00;98730.63;5028225;28;20041;-76
2023/12/16 06:36:24;;;;;;;0.17;0.17;;;;;;;4.05;100.00;98741.22;5030454;28;20049;-75
2023/12/16 06:39:10;;;;;;;0.20;0.20;;;;;;;4.06;100.00;98740.22;5030037;28;20104;-76
2023/12/16 06:41:56;;;;;;;0.20;0.20;;;;;;;4.02;100.00;98740.66;5032152;28;20124;-75
2023/12/16 06:44:42;;;;;;;0.20;0.20;;;;;;;4.05;100.00;98754.47;5029395;28;20550;-75
2023/12/16 06:47:28;;;;;;;0.10;0.10;;;;;;;4.02;100.00;98746.81;5030197;28;20037;-75
2023/12/16 06:50:14;;;;;;;0.10;0.10;;;;;;;4.04;100.00;98742.16;5030662;28;20033;-75
2023/12/16 06:53:00;;;;;;;0.20;0.20;;;;;;;4.04;100.00;98742.16;5029114;28;20033;-75
2023/12/16 06:55:46;;;;;;;0.20;0.20;;;;;;;3.97;100.00;98742.94;5028821;28;20124;-77
2023/12/16 06:58:32;;;;;;;0.20;0.20;;;;;;;4.02;100.00;98738.03;5028396;28;20103;-77
2023/12/16 07:01:21;;;;;;;0.20;0.20;;;;;;;4.03;100.00;98729.91;5038289;28;20040;-77
2023/12/16 07:04:07;;;;;;;0.20;0.20;;;;;;;4.04;100.00;98726.28;5028795;28;20041;-77
2023/12/16 07:06:53;;;;;;;0.20;0.20;;;;;;;4.03;100.00;98732.56;5028676;28;20072;-76
2023/12/16 07:09:41;;;;;;;0.10;0.10;;;;;;;4.06;100.00;98721.69;5028678;28;20548;-76
2023/12/16 07:12:27;;;;;;;0.20;0.20;;;;;;;4.02;100.00;98733.56;5025477;28;20045;-76
2023/12/16 07:15:13;;;;;;;0.20;0.20;;;;;;;4.02;100.00;98733.56;5027132;28;20034;-76
2023/12/16 07:18:00;;;;;;;0.20;0.20;;;;;;;4.07;100.00;98728.66;5027583;28;20076;-76
2023/12/16 07:20:46;;;;;;;0.20;0.20;;;;;;;4.05;100.00;98738.56;5021069;28;20171;-76
2023/12/16 07:23:35;;;;;;;0.20;0.20;;;;;;;4.09;100.00;98733.78;5027052;28;20128;-76
2023/12/16 07:26:23;;;;;;;0.20;0.20;;;;;;;4.08;100.00;98737.41;5028298;28;20098;-76
2023/12/16 07:29:09;;;;;;;0.20;0.20;;;;;;;4.07;100.00;98747.19;5025336;28;20037;-77
2023/12/16 07:31:55;;;;;;;0.20;0.20;;;;;;;4.13;100.00;98741.28;5028565;28;20108;-76
2023/12/16 07:34:41;;;;;;;0.20;0.20;;;;;;;4.16;100.00;98742.78;5029508;28;20501;-76
2023/12/16 07:37:26;;;;;;;0.13;0.13;;;;;;;4.17;100.00;98758.53;5028266;28;20142;-76
2023/12/16 07:40:12;;;;;;;0.20;0.20;;;;;;;4.15;100.00;98739.31;5028622;28;20041;-76
2023/12/16 07:42:58;;;;;;;0.10;0.10;;;;;;;4.17;100.00;98753.22;5027861;28;20448;-76
2023/12/16 07:45:44;;;;;;;0.10;0.10;;;;;;;4.17;100.00;98757.69;5028671;28;20037;-77
2023/12/16 07:48:30;;;;;;;0.10;0.10;;;;;;;4.12;100.00;98760.78;5027881;28;20156;-77
2023/12/16 07:51:17;;;;;;;0.20;0.20;;;;;;;4.24;100.00;98763.22;5027548;28;20069;-77
2023/12/16 07:54:03;;;;;;;0.15;0.15;;;;;;;4.16;100.00;98756.88;5026836;28;20472;-77
2023/12/16 07:56:50;;;;;;;0.20;0.20;;;;;;;4.18;100.00;98762.84;5027809;28;20565;-77
2023/12/16 07:59:36;;;;;;;0.20;0.20;;;;;;;4.15;100.00;98764.97;5028852;28;20143;-77
2023/12/16 08:02:22;;;;;;;0.20;0.20;;;;;;;4.12;100.00;98763.44;5026459;28;20655;-77
2023/12/16 08:05:08;;;;;;;0.20;0.20;;;;;;;4.12;100.00;98771.41;5026864;28;20040;-77
2023/12/16 08:07:54;;;;;;;0.20;0.20;;;;;;;4.07;100.00;98771.03;5027480;28;20048;-77
2023/12/16 08:10:40;;;;;;;0.20;0.20;;;;;;;4.20;100.00;98781.25;5028336;28;20410;-77
2023/12/16 08:13:26;;;;;;;0.20;0.20;;;;;;;4.21;100.00;98785.59;5030126;28;20087;-77
2023/12/16 08:16:12;;;;;;;0.20;0.20;;;;;;;4.22;100.00;98781.13;5029223;28;20036;-77
2023/12/16 08:18:57;;;;;;;0.20;0.20;;;;;;;4.19;100.00;98783.06;5032421;28;20037;-77
2023/12/16 08:21:43;;;;;;;0.20;0.20;;;;;;;4.16;100.00;98787.84;5031243;28;20029;-77
2023/12/16 08:24:29;;;;;;;0.20;0.20;;;;;;;4.27;100.00;98779.66;5042949;28;20572;-77
2023/12/16 08:27:15;;;;;;;0.20;0.20;;;;;;;4.33;100.00;98775.56;5041957;28;20034;-77
2023/12/16 08:30:01;;;;;;;0.20;0.20;;;;;;;4.21;100.00;98779.44;5029292;28;20120;-77
2023/12/16 08:32:47;;;;;;;0.20;0.20;;;;;;;4.34;100.00;98779.88;5009516;28;20033;-77
2023/12/16 08:35:34;;;;;;;0.20;0.20;;;;;;;4.28;100.00;98780.47;5010143;28;20056;-76
2023/12/16 08:38:19;;;;;;;0.10;0.10;;;;;;;4.22;100.00;98783.75;5009322;28;20042;-77
2023/12/16 08:41:08;;;;;;;0.10;0.10;;;;;;;4.17;100.00;98785.03;5010049;28;20479;-77
2023/12/16 08:43:54;;;;;;;0.20;0.20;;;;;;;4.42;100.00;98786.09;5010319;28;20448;-76
2023/12/16 08:46:41;;;;;;;0.20;0.20;;;;;;;4.59;100.00;98794.16;5009300;28;20045;-77
2023/12/16 08:49:26;;;;;;;0.20;0.20;;;;;;;4.65;100.00;98793.56;5011401;28;20046;-77
2023/12/16 08:52:15;;;;;;;0.20;0.20;;;;;;;4.58;100.00;98787.19;5010431;28;20048;-77
2023/12/16 08:55:01;;;;;;;0.20;0.20;;;;;;;4.70;100.00;98792.13;5009884;28;20503;-77
2023/12/16 08:57:47;;;;;;;0.20;0.20;;;;;;;4.79;100.00;98792.16;5009896;28;20045;-77
2023/12/16 09:00:33;;;;;;;0.20;0.20;;;;;;;4.81;100.00;98803.44;5014404;28;20405;-77
2023/12/16 09:03:19;;;;;;;0.20;0.20;;;;;;;4.91;100.00;98804.22;5034555;28;20116;-77
2023/12/16 09:06:06;;;;;;;0.10;0.10;;;;;;;5.10;100.00;98803.97;5050034;28;20032;-77
2023/12/16 09:08:52;;;;;;;0.20;0.20;;;;;;;5.21;100.00;98803.75;5046947;28;20037;-77
2023/12/16 09:11:38;;;;;;;0.20;0.20;;;;;;;5.23;100.00;98801.75;5047126;28;20501;-76
2023/12/16 09:14:24;;;;;;;0.20;0.20;;;;;;;5.38;100.00;98806.47;5049363;28;20048;-76
2023/12/16 09:17:10;;;;;;;0.20;0.20;;;;;;;5.43;100.00;98809.47;5047136;28;20098;-77
2023/12/16 09:19:56;;;;;;;0.15;0.15;;;;;;;5.42;100.00;98821.09;5047238;28;20036;-76
2023/12/16 09:22:42;;;;;;;0.20;0.20;;;;;;;5.58;100.00;98824.66;5046757;28;20531;-76
2023/12/16 09:25:28;;;;;;;0.20;0.20;;;;;;;5.72;100.00;98828.53;5048083;28;20429;-76
2023/12/16 09:28:14;;;;;;;0.10;0.10;;;;;;;5.75;100.00;98830.03;5049572;28;20040;-76
2023/12/16 09:30:59;;;;;;;0.20;0.20;;;;;;;6.02;100.00;98831.66;5047210;28;20040;-76
2023/12/16 09:33:45;;;;;;;0.20;0.20;;;;;;;6.06;100.00;98835.63;5048276;28;20041;-76
2023/12/16 09:36:33;;;;;;;0.20;0.20;;;;;;;6.17;100.00;98835.34;5047684;28;20080;-77
2023/12/16 09:39:19;;;;;;;0.20;0.20;;;;;;;6.06;100.00;98836.47;5046280;28;20047;-76
2023/12/16 09:42:06;;;;;;;0.20;0.20;;;;;;;6.03;100.00;98833.31;5050074;28;20041;-77
2023/12/16 09:44:56;;;;;;;0.20;0.20;;;;;;;5.95;100.00;98846.59;5047854;28;20044;-77
2023/12/16 09:47:43;;;;;;;0.20;0.20;;;;;;;6.05;100.00;98833.97;5047553;28;20094;-76
2023/12/16 09:50:32;;;;;;;0.10;0.10;;;;;;;6.08;100.00;98833.69;5046154;28;20137;-76
2023/12/16 09:53:17;;;;;;;0.20;0.20;;;;;;;5.92;100.00;98831.81;5046848;28;20523;-77
2023/12/16 09:56:04;;;;;;;0.20;0.20;;;;;;;6.05;100.00;98826.84;5048318;28;20048;-76
2023/12/16 09:58:54;;;;;;;0.20;0.20;;;;;;;6.16;100.00;98833.69;5048746;28;20527;-76
2023/12/16 10:01:40;;;;;;;0.20;0.20;;;;;;;6.31;100.00;98820.59;5034774;28;20171;-76
2023/12/16 10:04:28;;;;;;;0.17;0.17;;;;;;;6.19;100.00;98822.72;5046052;28;20517;-76
2023/12/16 10:07:14;;;;;;;0.20;0.20;;;;;;;5.99;100.00;98822.19;5045089;28;20064;-77
2023/12/16 10:10:00;;;;;;;0.20;0.20;;;;;;;6.10;100.00;98819.22;5046384;28;20530;-76
2023/12/16 10:12:47;;;;;;;0.20;0.20;;;;;;;6.35;100.00;98821.91;5046054;28;20125;-77
2023/12/16 10:15:34;;;;;;;0.20;0.20;;;;;;;6.38;100.00;98822.44;5049077;28;20043;-77
2023/12/16 10:18:20;;;;;;;0.20;0.20;;;;;;;6.41;100.00;98830.06;5046476;28;20409;-76
2023/12/16 10:21:06;;;;;;;0.20;0.20;;;;;;;6.39;100.00;98829.41;5048067;28;20040;-76
2023/12/16 10:23:52;;;;;;;0.10;0.10;;;;;;;6.55;100.00;98830.44;5046207;28;20048;-77
2023/12/16 10:26:42;;;;;;;0.20;0.20;;;;;;;6.69;100.00;98817.31;5048022;28;20488;-77
2023/12/16 10:29:28;;;;;;;0.10;0.10;;;;;;;6.77;100.00;98832.44;5045467;28;20138;-76
2023/12/16 10:32:14;;;;;;;0.20;0.20;;;;;;;6.73;100.00;98824.94;5046735;28;20029;-77
2023/12/16 10:35:02;;;;;;;0.20;0.20;;;;;;;6.84;100.00;98821.94;5040819;28;20048;-76
2023/12/16 10:37:49;;;;;;;0.20;0.20;;;;;;;6.97;100.00;98817.75;5049085;28;20455;-76
2023/12/16 10:40:37;;;;;;;0.20;0.20;;;;;;;7.02;100.00;98819.09;5045801;28;20559;-76
2023/12/16 10:43:23;;;;;;;0.20;0.20;;;;;;;6.97;100.00;98822.25;5039479;28;20044;-76
2023/12/16 10:46:16;;;;;;;0.20;0.20;;;;;;;6.89;100.00;98828.41;5050853;28;20041;-77
2023/12/16 10:49:07;;;;;;;0.15;0.15;;;;;;;6.90;100.00;98832.75;5046421;28;20059;-76
2023/12/16 10:52:03;;;;;;;0.20;0.20;;;;;;;7.14;100.00;98833.72;5046173;28;20381;-76
2023/12/16 10:54:59;;;;;;;0.20;0.20;;;;;;;6.90;100.00;98840.72;5046943;28;20037;-76
2023/12/16 10:57:50;;;;;;;0.20;0.20;;;;;;;7.23;100.00;98833.53;5047549;28;20036;-76
2023/12/16 11:00:38;;;;;;;0.20;0.20;;;;;;;7.58;100.00;98838.63;5046097;28;20672;-77
2023/12/16 11:03:29;;;;;;;0.10;0.10;;;;;;;7.64;100.00;98836.09;5047534;28;20072;-77
2023/12/16 11:06:24;;;;;;;0.20;0.20;;;;;;;7.91;100.00;98828.66;5048595;28;20073;-76
2023/12/16 11:09:12;;;;;;;0.20;0.20;;;;;;;8.27;100.00;98831.63;5047655;28;20116;-77
2023/12/16 11:12:00;;;;;;;0.15;0.15;;;;;;;8.07;100.00;98826.72;5047705;28;20029;-76
2023/12/16 11:14:47;;;;;;;0.20;0.20;;;;;;;8.19;100.00;98821.00;5047052;28;20262;-76
2023/12/16 11:17:40;;;;;;;0.20;0.20;;;;;;;8.24;100.00;98815.97;5047125;28;20036;-77
2023/12/16 11:20:37;;;;;;;0.20;0.20;;;;;;;8.35;100.00;98819.09;5047287;28;20457;-77
2023/12/16 11:23:23;;;;;;;0.10;0.10;;;;;;;8.54;100.00;98820.47;5050597;28;20131;-77
2023/12/16 11:26:09;;;;;;;0.10;0.10;;;;;;;8.80;100.00;98805.94;5049840;28;20059;-77
2023/12/16 11:28:55;;;;;;;0.20;0.20;;;;;;;9.15;100.00;98794.56;5050396;28;20446;-77
2023/12/16 11:31:41;;;;;;;0.20;0.20;;;;;;;9.93;100.00;98784.28;5047372;28;20044;-78
2023/12/16 11:34:44;;;;;;;0.20;0.20;;;;;;;11.09;100.00;98775.94;5049266;28;20385;-78
2023/12/16 11:37:36;;;;;;;0.30;0.30;;;;;;;13.88;95.87;98769.19;5050419;28;20051;-78
2023/12/16 11:40:38;;;;;;;0.20;0.20;;;;;;;13.36;94.25;98761.06;5051948;28;20991;-78
2023/12/16 11:43:46;;;;;;;0.17;0.17;;;;;;;15.96;63.44;98750.88;5050328;28;20059;-78
2023/12/16 11:46:38;;;;;;;0.30;0.30;;;;;;;18.31;50.80;98741.78;5050205;28;20519;-78
2023/12/16 11:49:23;;;;;;;;;;;;;;;19.33;42.55;98735.31;5050241;28;20449;-78
2023/12/16 11:52:09;;;;;;;0.20;0.20;;;;;;;20.29;45.21;98734.88;5050272;28;19978;-78
2023/12/16 11:54:59;;;;;;;0.20;0.20;;;;;;;20.81;47.10;98732.41;5049610;28;20091;-78
2023/12/16 11:57:48;;;;;;;0.20;0.20;;;;;;;21.33;41.67;98728.19;5051187;28;20036;-78
2023/12/16 12:00:34;;;;;;;0.10;0.10;;;;;;;20.82;45.43;98734.06;5049885;28;20090;-78
2023/12/16 12:03:22;;;;;;;0.20;0.20;;;;;;;20.54;41.03;98737.06;5049390;28;20052;-78
2023/12/16 12:06:09;;;;;;;0.20;0.20;;;;;;;19.70;43.66;98722.00;5050421;28;20048;-78
2023/12/16 12:08:55;;;;;;;0.10;0.10;;;;;;;18.77;40.33;98710.06;5040245;28;20078;-78
2023/12/16 12:11:44;;;;;;;0.20;0.20;;;;;;;19.34;48.61;98706.28;5050615;28;20055;-78
2023/12/16 12:14:30;;;;;;;0.10;0.10;;;;;;;21.54;41.19;98710.88;5051223;28;20350;-78
2023/12/16 12:17:16;;;;;;;0.20;0.20;;;;;;;21.36;42.29;98706.69;5050768;28;20741;-78
2023/12/16 12:20:04;;;;;;;0.13;0.13;;;;;;;21.27;37.86;98708.28;5050498;28;20146;-79
2023/12/16 12:22:50;;;;;;;0.17;0.17;;;;;;;20.12;44.83;98713.25;5051344;28;20108;-79
2023/12/16 12:25:36;;;;;;;0.10;0.10;;;;;;;18.52;51.10;98710.44;5048599;28;20459;-79
2023/12/16 12:28:22;;;;;;;0.10;0.10;;;;;;;15.99;70.59;98717.19;5038542;28;20472;-78
2023/12/16 12:31:08;;;;;;;0.10;0.10;;;;;;;14.02;87.56;98708.03;5047895;28;20040;-78
2023/12/16 12:33:54;;;;;;;0.17;0.17;;;;;;;12.75;89.31;98710.25;5048863;28;20167;-78
2023/12/16 12:36:40;;;;;;;0.10;0.10;;;;;;;10.51;100.00;98720.91;5049999;28;20053;-78
2023/12/16 12:39:26;;;;;;;0.10;0.10;;;;;;;9.19;100.00;98712.22;5035339;28;20445;-77
2023/12/16 12:42:12;;;;;;;0.10;0.10;;;;;;;9.64;100.00;98719.16;5049306;28;20800;-77
2023/12/16 12:44:58;;;;;;;0.10;0.10;;;;;;;9.93;100.00;98710.22;5049435;28;20119;-77
2023/12/16 12:47:44;;;;;;;0.10;0.10;;;;;;;9.92;100.00;98694.38;5048374;28;20690;-77
2023/12/16 12:50:30;;;;;;;0.10;0.10;;;;;;;9.80;100.00;98696.72;5049925;28;20049;-77
2023/12/16 12:53:20;;;;;;;0.10;0.10;;;;;;;9.51;100.00;98702.97;5050247;28;20033;-77
2023/12/16 12:56:07;;;;;;;0.10;0.10;;;;;;;9.11;100.00;98697.13;5049074;28;20064;-77
2023/12/16 12:58:53;;;;;;;0.10;0.10;;;;;;;8.82;100.00;98697.13;5047326;28;20044;-77
2023/12/16 13:01:38;;;;;;;0.10;0.10;;;;;;;8.87;100.00;98678.69;5048566;28;20037;-77
2023/12/16 13:04:24;;;;;;;0.10;0.10;;;;;;;8.75;100.00;98685.50;5048615;28;20056;-77